createdAt,value
2017-02-22T00:00:26.507Z,1001.02
2017-02-22T00:01:07.035Z,1000.83
2017-02-22T00:01:47.541Z,1000.79
2017-02-22T00:02:28.029Z,1000.81
2017-02-22T00:03:08.551Z,1000.72
2017-02-22T00:03:49.030Z,1000.76
2017-02-22T00:04:29.555Z,1000.72
2017-02-22T00:05:09.995Z,1000.7
2017-02-22T00:05:50.551Z,1000.58
2017-02-22T00:06:31.065Z,1000.69
2017-02-22T00:07:11.531Z,1000.52
2017-02-22T00:07:52.031Z,1000.71
2017-02-22T00:08:32.538Z,1000.61
2017-02-22T00:09:13.010Z,1000.61
2017-02-22T00:09:54.548Z,1000.4
2017-02-22T00:10:35.089Z,1000.38
2017-02-22T00:11:15.609Z,1000.41
2017-02-22T00:11:56.100Z,1000.46
2017-02-22T00:12:36.606Z,1000.43
2017-02-22T00:13:17.107Z,1000.29
2017-02-22T00:13:57.638Z,1000.18
2017-02-22T00:14:38.136Z,1000.12
2017-02-22T00:15:18.608Z,1000.35
2017-02-22T00:15:59.106Z,1000.26
2017-02-22T00:16:39.639Z,1000.17
2017-02-22T00:17:20.162Z,1000.28
2017-02-22T00:18:00.630Z,1000.03
2017-02-22T00:18:41.130Z,1000
2017-02-22T00:19:21.666Z,1000.05
2017-02-22T00:20:02.113Z,1000.04
2017-02-22T00:20:42.664Z,1000.17
2017-02-22T00:21:23.100Z,1000.12
2017-02-22T00:22:03.677Z,1000.06
2017-02-22T00:22:44.193Z,1000.01
2017-02-22T00:23:25.648Z,999.93
2017-02-22T00:24:06.141Z,999.95
2017-02-22T00:24:46.667Z,999.83
2017-02-22T00:25:27.256Z,999.87
2017-02-22T00:26:07.714Z,999.81
2017-02-22T00:26:48.239Z,999.73
2017-02-22T00:27:28.740Z,999.79
2017-02-22T00:28:09.265Z,999.73
2017-02-22T00:28:49.720Z,999.69
2017-02-22T00:29:30.264Z,999.7
2017-02-22T00:30:10.750Z,999.55
2017-02-22T00:30:51.356Z,999.69
2017-02-22T00:31:31.765Z,999.56
2017-02-22T00:32:12.314Z,999.6
2017-02-22T00:32:52.792Z,999.7
2017-02-22T00:33:33.288Z,999.59
2017-02-22T00:34:13.760Z,999.61
2017-02-22T00:34:54.254Z,999.76
2017-02-22T00:35:34.800Z,999.51
2017-02-22T00:36:16.237Z,999.41
2017-02-22T00:36:56.744Z,999.45
2017-02-22T00:37:37.330Z,999.52
2017-02-22T00:38:17.818Z,999.54
2017-02-22T00:38:58.276Z,999.51
2017-02-22T00:39:38.759Z,999.24
2017-02-22T00:40:19.272Z,999.4
2017-02-22T00:40:59.769Z,999.29
2017-02-22T00:41:40.336Z,999.31
2017-02-22T00:42:20.867Z,999.33
2017-02-22T00:43:01.372Z,999.27
2017-02-22T00:43:41.889Z,999.41
2017-02-22T00:44:22.425Z,999.19
2017-02-22T00:45:02.955Z,999.11
2017-02-22T00:45:44.337Z,999.39
2017-02-22T00:46:24.840Z,999.19
2017-02-22T00:47:05.380Z,999.16
2017-02-22T00:47:45.882Z,999.04
2017-02-22T00:48:26.447Z,998.98
2017-02-22T00:49:06.948Z,998.92
2017-02-22T00:49:47.465Z,998.95
2017-02-22T00:50:27.978Z,998.96
2017-02-22T00:51:08.467Z,999
2017-02-22T00:51:49.036Z,999.05
2017-02-22T00:52:29.566Z,999.01
2017-02-22T00:53:10.093Z,998.89
2017-02-22T00:53:50.646Z,999.02
2017-02-22T00:54:31.113Z,999
2017-02-22T00:55:11.662Z,999.29
2017-02-22T00:55:52.109Z,999.11
2017-02-22T00:56:32.662Z,998.97
2017-02-22T00:57:13.161Z,998.67
2017-02-22T00:57:53.666Z,998.95
2017-02-22T00:58:34.200Z,998.86
2017-02-22T00:59:15.520Z,998.91
2017-02-22T00:59:56.072Z,998.79
2017-02-22T01:00:36.517Z,998.63
2017-02-22T01:01:17.077Z,998.83
2017-02-22T01:01:57.569Z,999.06
2017-02-22T01:02:38.088Z,998.72
2017-02-22T01:03:18.553Z,998.56
2017-02-22T01:03:59.104Z,998.45
2017-02-22T01:04:40.599Z,998.51
2017-02-22T01:05:21.112Z,998.33
2017-02-22T01:06:01.591Z,999.32
2017-02-22T01:06:42.130Z,998.58
2017-02-22T01:07:22.679Z,998.5
2017-02-22T01:08:03.363Z,998.59
2017-02-22T01:08:43.699Z,998.36
2017-02-22T01:09:24.208Z,998.55
2017-02-22T01:10:04.761Z,998.63
2017-02-22T01:10:45.292Z,998.19
2017-02-22T01:11:25.767Z,998.14
2017-02-22T01:12:06.256Z,998.31
2017-02-22T01:12:46.848Z,998.22
2017-02-22T01:13:28.263Z,998.37
2017-02-22T01:14:08.856Z,998.27
2017-02-22T01:14:49.355Z,998.26
2017-02-22T01:15:29.871Z,998.33
2017-02-22T01:16:10.402Z,998.14
2017-02-22T01:16:50.940Z,998.08
2017-02-22T01:17:31.533Z,998.21
2017-02-22T01:18:12.015Z,998.2
2017-02-22T01:18:53.503Z,998.28
2017-02-22T01:19:34.018Z,997.87
2017-02-22T01:20:14.546Z,998.12
2017-02-22T01:20:55.030Z,998.38
2017-02-22T01:21:35.531Z,998.11
2017-02-22T01:22:16.033Z,998.23
2017-02-22T01:22:56.553Z,998.14
2017-02-22T01:23:37.147Z,997.73
2017-02-22T01:24:18.765Z,997.85
2017-02-22T01:24:59.258Z,997.81
2017-02-22T01:25:39.812Z,997.69
2017-02-22T01:26:20.356Z,998.13
2017-02-22T01:27:00.868Z,998.04
2017-02-22T01:27:41.435Z,998.15
2017-02-22T01:28:21.936Z,997.69
2017-02-22T01:29:02.416Z,997.77
2017-02-22T01:29:42.992Z,998.04
2017-02-22T01:30:23.446Z,997.78
2017-02-22T01:31:03.951Z,997.74
2017-02-22T01:31:44.468Z,997.7
2017-02-22T01:32:25.042Z,997.59
2017-02-22T01:33:06.282Z,997.74
2017-02-22T01:33:46.817Z,997.46
2017-02-22T01:34:27.310Z,997.72
2017-02-22T01:35:07.946Z,997.67
2017-02-22T01:35:48.471Z,997.74
2017-02-22T01:36:29.013Z,997.62
2017-02-22T01:37:09.512Z,997.59
2017-02-22T01:37:50.024Z,998.26
2017-02-22T01:38:31.509Z,997.51
2017-02-22T01:39:12.048Z,997.46
2017-02-22T01:39:52.583Z,997.37
2017-02-22T01:40:33.150Z,997.62
2017-02-22T01:41:13.643Z,997.44
2017-02-22T01:41:54.157Z,997.5
2017-02-22T01:42:34.639Z,997.73
2017-02-22T01:43:15.168Z,997.54
2017-02-22T01:43:56.677Z,997.42
2017-02-22T01:44:37.243Z,997.45
2017-02-22T01:45:17.751Z,997.33
2017-02-22T01:45:58.216Z,997.54
2017-02-22T01:46:38.995Z,997.53
2017-02-22T01:47:19.493Z,997.12
2017-02-22T01:48:00.002Z,997.23
2017-02-22T01:48:40.572Z,997.53
2017-02-22T01:49:21.100Z,997.22
2017-02-22T01:50:01.611Z,997.31
2017-02-22T01:50:42.086Z,997.18
2017-02-22T01:51:22.576Z,997.1
2017-02-22T01:52:03.139Z,997.25
2017-02-22T01:52:44.347Z,997.21
2017-02-22T01:53:24.874Z,996.87
2017-02-22T01:54:05.415Z,996.89
2017-02-22T01:54:45.902Z,996.88
2017-02-22T01:55:26.452Z,997.11
2017-02-22T01:56:07.001Z,996.98
2017-02-22T01:56:47.532Z,997.04
2017-02-22T01:57:28.108Z,997.13
2017-02-22T01:58:09.596Z,997.28
2017-02-22T01:58:50.176Z,996.9
2017-02-22T01:59:30.672Z,996.86
2017-02-22T02:00:11.218Z,997.1
2017-02-22T02:00:51.732Z,996.7
2017-02-22T02:01:32.284Z,997.04
2017-02-22T02:02:12.783Z,996.93
2017-02-22T02:02:53.281Z,996.97
2017-02-22T02:03:34.645Z,997.1
2017-02-22T02:04:15.179Z,996.72
2017-02-22T02:04:55.733Z,996.77
2017-02-22T02:05:36.224Z,996.88
2017-02-22T02:06:16.752Z,996.47
2017-02-22T02:06:57.255Z,996.9
2017-02-22T02:07:37.797Z,996.74
2017-02-22T02:08:18.370Z,996.57
2017-02-22T02:08:58.940Z,996.63
2017-02-22T02:09:39.447Z,996.82
2017-02-22T02:10:20.031Z,996.61
2017-02-22T02:11:00.633Z,996.66
2017-02-22T02:11:41.131Z,996.42
2017-02-22T02:12:22.380Z,996.52
2017-02-22T02:13:02.866Z,996.42
2017-02-22T02:13:43.412Z,996.51
2017-02-22T02:14:23.938Z,996.37
2017-02-22T02:15:04.472Z,996.54
2017-02-22T02:15:44.987Z,996.49
2017-02-22T02:16:25.549Z,996.39
2017-02-22T02:17:06.065Z,996.32
2017-02-22T02:17:47.547Z,996.31
2017-02-22T02:18:28.058Z,996.75
2017-02-22T02:19:08.651Z,996.64
2017-02-22T02:19:49.123Z,996.35
2017-02-22T02:20:29.628Z,996.43
2017-02-22T02:21:10.125Z,996.2
2017-02-22T02:21:50.666Z,996.37
2017-02-22T02:22:31.212Z,996.14
2017-02-22T02:23:12.694Z,996.38
2017-02-22T02:23:53.209Z,996.32
2017-02-22T02:24:33.866Z,996.17
2017-02-22T02:25:14.424Z,996.15
2017-02-22T02:25:54.920Z,996.22
2017-02-22T02:26:35.498Z,996.08
2017-02-22T02:27:15.986Z,996.09
2017-02-22T02:27:56.541Z,996.34
2017-02-22T02:28:37.052Z,996.1
2017-02-22T02:29:17.609Z,996
2017-02-22T02:29:58.130Z,996
2017-02-22T02:30:38.668Z,996.09
2017-02-22T02:31:19.198Z,995.89
2017-02-22T02:32:00.390Z,996
2017-02-22T02:32:40.872Z,996.09
2017-02-22T02:33:21.399Z,995.84
2017-02-22T02:34:01.918Z,996
2017-02-22T02:34:42.405Z,995.78
2017-02-22T02:35:22.936Z,995.9
2017-02-22T02:36:03.621Z,995.98
2017-02-22T02:36:44.198Z,995.75
2017-02-22T02:37:25.620Z,996.02
2017-02-22T02:38:06.150Z,995.86
2017-02-22T02:38:46.621Z,995.83
2017-02-22T02:39:27.162Z,996
2017-02-22T02:40:07.636Z,995.9
2017-02-22T02:40:48.196Z,995.97
2017-02-22T02:41:28.744Z,995.88
2017-02-22T02:42:09.258Z,995.72
2017-02-22T02:42:50.753Z,995.88
2017-02-22T02:43:31.290Z,995.81
2017-02-22T02:44:11.828Z,996.01
2017-02-22T02:44:52.298Z,995.73
2017-02-22T02:45:32.829Z,995.76
2017-02-22T02:46:13.311Z,995.68
2017-02-22T02:46:53.831Z,995.74
2017-02-22T02:47:34.372Z,995.72
2017-02-22T02:48:14.841Z,995.82
2017-02-22T02:48:55.370Z,995.73
2017-02-22T02:49:35.916Z,995.77
2017-02-22T02:50:16.400Z,995.75
2017-02-22T02:50:56.962Z,995.82
2017-02-22T02:51:38.449Z,995.58
2017-02-22T02:52:18.972Z,995.59
2017-02-22T02:52:59.451Z,995.59
2017-02-22T02:53:39.972Z,995.49
2017-02-22T02:54:20.495Z,995.51
2017-02-22T02:55:01.004Z,995.49
2017-02-22T02:55:41.561Z,995.65
2017-02-22T02:56:22.042Z,995.67
2017-02-22T02:57:02.551Z,995.44
2017-02-22T02:57:43.068Z,995.69
2017-02-22T02:58:23.601Z,995.36
2017-02-22T02:59:04.108Z,995.55
2017-02-22T02:59:44.636Z,995.39
2017-02-22T03:00:25.137Z,995.51
2017-02-22T03:01:06.594Z,995.53
2017-02-22T03:01:47.105Z,995.38
2017-02-22T03:02:27.622Z,995.53
2017-02-22T03:03:08.160Z,995.43
2017-02-22T03:03:48.649Z,995.22
2017-02-22T03:04:29.160Z,995.76
2017-02-22T03:05:09.684Z,995.34
2017-02-22T03:05:50.195Z,995.3
2017-02-22T03:06:30.730Z,995.31
2017-02-22T03:07:11.234Z,995.33
2017-02-22T03:07:51.784Z,995.18
2017-02-22T03:08:32.314Z,995.26
2017-02-22T03:09:12.822Z,995.28
2017-02-22T03:09:53.345Z,995.32
2017-02-22T03:10:34.044Z,995.18
2017-02-22T03:11:14.578Z,995.17
2017-02-22T03:11:55.078Z,995.16
2017-02-22T03:40:19.973Z,994.93
2017-02-22T03:41:08.574Z,995.12
2017-02-22T03:41:57.004Z,994.83
2017-02-22T03:42:44.437Z,995
2017-02-22T04:08:06.915Z,994.96
2017-02-22T04:08:55.434Z,994.67
2017-02-22T04:09:43.886Z,994.78
2017-02-22T04:10:32.691Z,994.62
2017-02-22T04:11:21.095Z,994.58
2017-02-22T04:12:09.662Z,994.56
2017-02-22T04:12:58.155Z,994.57
2017-02-22T04:13:46.652Z,994.6
2017-02-22T04:14:34.662Z,994.68
2017-02-22T04:19:38.355Z,994.66
2017-02-22T04:20:26.943Z,994.6
2017-02-22T04:21:15.617Z,994.57
2017-02-22T04:22:04.495Z,994.59
2017-02-22T04:22:52.952Z,994.6
2017-02-22T04:23:41.257Z,994.51
2017-02-22T04:24:29.711Z,994.77
2017-02-22T04:25:18.212Z,994.59
2017-02-22T04:26:06.685Z,994.4
2017-02-22T04:26:55.112Z,994.55
2017-02-22T04:27:43.680Z,994.65
2017-02-22T04:28:32.155Z,994.42
2017-02-22T04:29:20.860Z,994.49
2017-02-22T04:30:09.240Z,994.47
2017-02-22T04:30:57.369Z,994.55
2017-02-22T04:31:45.642Z,994.38
2017-02-22T04:32:34.118Z,994.41
2017-02-22T04:33:22.599Z,994.56
2017-02-22T04:34:10.539Z,994.53
